Time;durP1;ratioP1;P1;durP2;ratioP2;P2;SDS_P1;SDS_P2;PMS_P1;PMS_P2;Temp;Humidity;BMP_temperature;BMP_pressure;BME280_temperature;BME280_humidity;BME280_pressure;Samples;Min_cycle;Max_cycle;Signal;HPM_P1;HPM_P2
2021/08/05 00:01:46;;;;;;;2.92;2.20;;;15.30;89.30;;;;;;5135891;27;20378;-72
2021/08/05 00:04:11;;;;;;;4.38;2.05;;;15.30;89.50;;;;;;5154941;27;20029;-72
2021/08/05 00:06:37;;;;;;;3.17;2.17;;;15.20;89.60;;;;;;5154548;27;20046;-72
2021/08/05 00:09:03;;;;;;;2.72;2.13;;;15.20;89.80;;;;;;5155732;27;20030;-72
2021/08/05 00:11:29;;;;;;;2.85;2.20;;;15.30;90.10;;;;;;5160982;27;20022;-71
2021/08/05 00:13:54;;;;;;;2.72;2.10;;;15.30;90.10;;;;;;5154711;27;20035;-72
2021/08/05 00:16:21;;;;;;;3.50;2.20;;;15.20;90.00;;;;;;5154121;27;20094;-72
2021/08/05 00:18:47;;;;;;;2.05;1.80;;;15.30;90.20;;;;;;5137892;27;20033;-72
2021/08/05 00:21:15;;;;;;;3.40;1.70;;;15.30;90.20;;;;;;5162835;27;20019;-71
2021/08/05 00:23:41;;;;;;;4.82;2.25;;;15.20;90.20;;;;;;5162575;27;20475;-72
2021/08/05 00:26:06;;;;;;;3.95;2.38;;;15.20;90.00;;;;;;5158602;27;20023;-72
2021/08/05 00:28:33;;;;;;;6.13;2.17;;;15.20;89.90;;;;;;5158657;27;20023;-71
2021/08/05 00:30:59;;;;;;;3.63;2.05;;;15.20;90.00;;;;;;5158248;27;20104;-72
2021/08/05 00:33:24;;;;;;;3.90;2.30;;;15.20;89.90;;;;;;5140039;27;20031;-72
2021/08/05 00:35:50;;;;;;;4.07;2.08;;;15.30;89.90;;;;;;5145869;27;20102;-71
2021/08/05 00:38:16;;;;;;;2.33;2.00;;;15.30;89.80;;;;;;5158458;27;20491;-71
2021/08/05 00:40:41;;;;;;;4.05;2.22;;;15.20;89.70;;;;;;5157780;27;20394;-71
2021/08/05 00:43:07;;;;;;;2.97;2.15;;;15.20;89.60;;;;;;5158016;27;20023;-72
2021/08/05 00:45:33;;;;;;;3.80;1.88;;;15.20;89.60;;;;;;5158050;27;20034;-73
2021/08/05 00:47:59;;;;;;;3.83;2.63;;;15.20;89.40;;;;;;5157813;27;20022;-72
2021/08/05 00:50:24;;;;;;;2.78;1.75;;;15.10;89.40;;;;;;5157419;27;20038;-72
2021/08/05 00:52:50;;;;;;;4.28;1.98;;;15.10;89.40;;;;;;5138861;27;20470;-72
2021/08/05 00:55:16;;;;;;;2.45;2.20;;;15.10;89.50;;;;;;5157580;27;20514;-72
2021/08/05 00:57:41;;;;;;;4.50;2.03;;;15.10;89.80;;;;;;5157489;27;20034;-72
2021/08/05 01:00:09;;;;;;;2.38;2.17;;;15.10;89.80;;;;;;5157447;27;20022;-72
2021/08/05 01:02:40;;;;;;;3.00;1.90;;;15.10;89.90;;;;;;5157256;27;20138;-72
2021/08/05 01:05:06;;;;;;;2.15;1.95;;;15.10;90.00;;;;;;5157326;27;20026;-72
2021/08/05 01:07:55;;;;;;;4.88;1.88;;;15.10;90.20;;;;;;5157110;27;20019;-72
2021/08/05 01:10:27;;;;;;;4.28;1.85;;;15.10;90.30;;;;;;5157271;27;20526;-72
2021/08/05 01:13:20;;;;;;;3.33;1.90;;;15.20;90.30;;;;;;5157124;27;20356;-72
2021/08/05 01:15:48;;;;;;;2.63;1.95;;;15.20;90.40;;;;;;5157139;27;20420;-72
2021/08/05 01:18:27;;;;;;;2.20;2.00;;;15.20;90.20;;;;;;5157148;27;20102;-72
2021/08/05 01:20:54;;;;;;;3.30;1.95;;;15.30;90.00;;;;;;5157101;27;20018;-75
2021/08/05 01:23:58;;;;;;;2.28;1.83;;;15.20;89.90;;;;;;5156944;27;20083;-74
2021/08/05 01:26:27;;;;;;;3.03;2.03;;;15.20;89.90;;;;;;5130896;27;20034;-74
2021/08/05 01:28:53;;;;;;;3.47;2.33;;;15.30;90.00;;;;;;5156884;27;20034;-74
2021/08/05 01:31:22;;;;;;;4.28;2.08;;;15.30;90.10;;;;;;5155916;27;20062;-74
2021/08/05 01:33:49;;;;;;;3.78;2.00;;;15.30;89.90;;;;;;5156672;27;20037;-74
2021/08/05 01:36:15;;;;;;;2.35;1.98;;;15.20;89.70;;;;;;5156769;27;20466;-74
2021/08/05 01:38:43;;;;;;;4.10;2.28;;;15.20;89.60;;;;;;5156771;27;20053;-75
2021/08/05 01:41:10;;;;;;;3.00;2.22;;;15.20;89.60;;;;;;5156528;27;20026;-74
2021/08/05 01:43:37;;;;;;;4.85;1.83;;;15.10;89.70;;;;;;5156230;27;20470;-74
2021/08/05 01:46:03;;;;;;;4.85;2.25;;;15.10;89.60;;;;;;5156618;27;20037;-74
2021/08/05 01:48:31;;;;;;;3.78;2.40;;;15.10;89.60;;;;;;5156418;27;20030;-74
2021/08/05 01:51:01;;;;;;;2.80;2.15;;;15.00;89.60;;;;;;5156262;27;20076;-74
2021/08/05 01:53:27;;;;;;;3.38;2.13;;;15.00;90.00;;;;;;5156418;27;20095;-76
2021/08/05 01:55:53;;;;;;;5.90;2.42;;;15.10;90.40;;;;;;5156453;27;20476;-75
2021/08/05 01:58:19;;;;;;;2.88;2.10;;;15.00;90.30;;;;;;5156285;27;20034;-74
2021/08/05 02:00:44;;;;;;;5.35;2.40;;;15.00;90.40;;;;;;5137712;27;20015;-75
2021/08/05 02:03:13;;;;;;;5.20;2.63;;;15.00;90.40;;;;;;5156242;27;20038;-75
2021/08/05 02:05:52;;;;;;;2.53;2.15;;;15.00;90.40;;;;;;5156147;27;20095;-75
2021/08/05 02:08:22;;;;;;;2.70;2.15;;;15.10;90.50;;;;;;5156276;27;20073;-74
2021/08/05 02:10:50;;;;;;;3.40;2.20;;;15.10;90.50;;;;;;5156017;27;20023;-75
2021/08/05 02:13:28;;;;;;;2.50;2.25;;;15.10;90.50;;;;;;5155921;27;20482;-75
2021/08/05 02:15:58;;;;;;;3.33;2.58;;;15.10;90.50;;;;;;5155937;27;20089;-76
2021/08/05 02:18:30;;;;;;;3.45;2.47;;;15.20;90.30;;;;;;5155951;27;20463;-75
2021/08/05 02:20:57;;;;;;;3.58;2.55;;;15.20;90.20;;;;;;5155977;27;20023;-75
2021/08/05 02:23:24;;;;;;;3.72;2.60;;;15.20;90.10;;;;;;5137246;27;20493;-75
2021/08/05 02:25:51;;;;;;;4.32;2.22;;;15.20;90.10;;;;;;5155832;27;20026;-74
2021/08/05 02:28:21;;;;;;;2.75;2.28;;;15.20;90.40;;;;;;5155787;27;20014;-75
2021/08/05 02:30:48;;;;;;;3.25;2.47;;;15.20;90.20;;;;;;5155690;27;20105;-75
2021/08/05 02:33:15;;;;;;;3.72;2.13;;;15.30;90.20;;;;;;5155687;27;20040;-75
2021/08/05 02:35:43;;;;;;;4.50;2.17;;;15.20;90.00;;;;;;5155493;27;20070;-74
2021/08/05 02:38:09;;;;;;;3.17;2.45;;;15.30;90.00;;;;;;5155526;27;20071;-75
2021/08/05 02:40:36;;;;;;;2.63;2.35;;;15.20;89.90;;;;;;5155479;27;20025;-75
2021/08/05 02:43:03;;;;;;;3.65;2.42;;;15.20;90.00;;;;;;5155312;27;20037;-75
2021/08/05 02:45:30;;;;;;;3.65;2.08;;;15.20;90.10;;;;;;5155501;27;20031;-75
2021/08/05 02:47:57;;;;;;;3.88;2.85;;;15.20;90.10;;;;;;5155399;27;20023;-75
2021/08/05 02:50:23;;;;;;;3.08;1.80;;;15.20;90.10;;;;;;5155146;27;20043;-76
2021/08/05 02:52:48;;;;;;;4.63;2.40;;;15.20;90.10;;;;;;5155205;27;20089;-75
2021/08/05 02:55:14;;;;;;;3.47;2.20;;;15.20;90.20;;;;;;5155263;27;20097;-75
2021/08/05 02:57:41;;;;;;;3.05;2.30;;;15.20;90.20;;;;;;5155274;27;20033;-75
2021/08/05 03:00:07;;;;;;;4.18;2.42;;;15.20;90.20;;;;;;5155221;27;20019;-75
2021/08/05 03:02:34;;;;;;;3.42;2.50;;;15.20;90.00;;;;;;5155039;27;20027;-76
2021/08/05 03:05:00;;;;;;;3.50;2.80;;;15.10;90.00;;;;;;5136681;27;20432;-75
2021/08/05 03:07:26;;;;;;;4.10;3.03;;;15.10;90.10;;;;;;5155219;27;20460;-75
2021/08/05 03:09:52;;;;;;;3.83;2.90;;;15.10;89.90;;;;;;5155100;27;20026;-75
2021/08/05 03:12:18;;;;;;;4.00;3.00;;;15.00;89.80;;;;;;5155108;27;20037;-74
2021/08/05 03:14:43;;;;;;;4.28;3.22;;;15.00;90.10;;;;;;5154803;27;20109;-74
2021/08/05 03:17:10;;;;;;;4.50;2.92;;;15.00;90.10;;;;;;5155029;27;20023;-76
2021/08/05 03:19:36;;;;;;;4.35;3.30;;;15.00;90.10;;;;;;5154845;27;20027;-75
2021/08/05 03:22:03;;;;;;;4.60;2.70;;;15.00;90.00;;;;;;5154910;27;20022;-74
2021/08/05 03:24:28;;;;;;;3.55;3.00;;;15.00;90.10;;;;;;5154772;27;20022;-75
2021/08/05 03:26:54;;;;;;;3.58;2.58;;;15.00;90.00;;;;;;5154820;27;20030;-75
2021/08/05 03:29:19;;;;;;;3.63;2.90;;;15.00;89.80;;;;;;5154723;27;20027;-74
2021/08/05 03:31:45;;;;;;;4.72;3.55;;;15.00;89.70;;;;;;5154712;27;20467;-75
2021/08/05 03:34:11;;;;;;;5.32;3.33;;;15.00;89.70;;;;;;5154624;27;20102;-75
2021/08/05 03:36:36;;;;;;;5.30;3.67;;;15.00;89.90;;;;;;5154607;27;20493;-75
2021/08/05 03:39:02;;;;;;;3.83;3.15;;;15.00;89.90;;;;;;5154534;27;20467;-75
2021/08/05 03:41:27;;;;;;;4.68;3.20;;;15.00;89.80;;;;;;5154404;27;20435;-75
2021/08/05 03:43:53;;;;;;;3.33;2.80;;;15.00;89.60;;;;;;5154615;27;20034;-75
2021/08/05 03:46:19;;;;;;;4.65;3.20;;;15.00;89.50;;;;;;5135984;27;20018;-74
2021/08/05 03:48:44;;;;;;;3.22;2.78;;;15.00;89.40;;;;;;5154309;27;20052;-75
2021/08/05 03:51:10;;;;;;;3.42;2.47;;;15.00;89.50;;;;;;5135749;27;20038;-75
2021/08/05 03:53:36;;;;;;;3.25;2.53;;;15.00;89.50;;;;;;5155729;27;20034;-74
2021/08/05 03:56:01;;;;;;;3.70;2.53;;;15.00;89.50;;;;;;5158710;27;20023;-75
2021/08/05 03:58:27;;;;;;;3.40;2.70;;;15.00;89.40;;;;;;5158689;27;20503;-75
2021/08/05 04:00:52;;;;;;;3.78;2.53;;;15.00;89.30;;;;;;5159561;27;20031;-74
2021/08/05 04:03:18;;;;;;;4.13;2.58;;;15.00;89.20;;;;;;5159407;27;20042;-75
2021/08/05 04:05:43;;;;;;;6.60;2.95;;;14.90;89.60;;;;;;5163443;27;20030;-75
2021/08/05 04:08:09;;;;;;;4.03;2.90;;;15.00;89.70;;;;;;5159785;27;20023;-75
2021/08/05 04:10:35;;;;;;;7.35;3.30;;;14.90;89.60;;;;;;5163387;27;20025;-75
2021/08/05 04:13:00;;;;;;;6.13;3.13;;;14.90;89.30;;;;;;5164762;27;20071;-75
2021/08/05 04:15:26;;;;;;;4.32;2.85;;;14.80;89.00;;;;;;5180747;27;20011;-73
2021/08/05 04:17:51;;;;;;;5.80;2.97;;;14.80;89.10;;;;;;5183527;27;20086;-73
2021/08/05 04:20:18;;;;;;;4.93;2.65;;;14.80;89.00;;;;;;5160379;27;20058;-73
2021/08/05 04:22:44;;;;;;;4.95;3.17;;;14.80;89.20;;;;;;5158353;27;20027;-73
2021/08/05 04:25:10;;;;;;;6.03;3.05;;;14.70;89.30;;;;;;5158608;27;20127;-73
2021/08/05 04:27:38;;;;;;;4.45;3.05;;;14.80;89.20;;;;;;5158522;27;20018;-73
2021/08/05 04:30:06;;;;;;;6.07;3.78;;;14.80;89.20;;;;;;5158985;27;20027;-72
2021/08/05 04:32:32;;;;;;;4.72;2.97;;;14.80;89.20;;;;;;5159051;27;20015;-73
2021/08/05 04:34:57;;;;;;;4.47;3.05;;;14.90;89.10;;;;;;5158147;27;20033;-73
2021/08/05 04:37:23;;;;;;;3.85;2.95;;;14.90;89.20;;;;;;5158342;27;20042;-72
2021/08/05 04:39:48;;;;;;;4.22;3.00;;;14.90;89.20;;;;;;5158048;27;20030;-72
2021/08/05 04:42:14;;;;;;;5.03;3.25;;;14.90;89.00;;;;;;5158720;27;20067;-72
2021/08/05 04:44:40;;;;;;;6.35;3.90;;;14.80;89.00;;;;;;5157987;27;20046;-72
2021/08/05 04:47:06;;;;;;;8.50;3.50;;;14.80;89.20;;;;;;5140982;27;20019;-72
2021/08/05 04:49:31;;;;;;;5.43;3.50;;;14.80;89.40;;;;;;5161010;27;20023;-74
2021/08/05 04:51:57;;;;;;;5.13;3.50;;;14.90;89.50;;;;;;5161521;27;20027;-73
2021/08/05 04:54:23;;;;;;;4.63;3.58;;;14.90;89.30;;;;;;5159852;27;20538;-72
2021/08/05 04:56:49;;;;;;;7.65;5.70;;;14.90;89.20;;;;;;5172450;27;20086;-72
2021/08/05 04:59:15;;;;;;;8.75;6.15;;;14.90;89.10;;;;;;5172873;27;20022;-72
2021/08/05 05:01:43;;;;;;;11.80;6.80;;;15.00;89.10;;;;;;5166256;27;20023;-73
2021/08/05 05:04:08;;;;;;;14.50;7.60;;;15.00;88.90;;;;;;5162477;27;20023;-72
2021/08/05 05:06:34;;;;;;;12.35;8.10;;;15.00;88.70;;;;;;5160964;27;20386;-72
2021/08/05 05:08:59;;;;;;;16.80;9.95;;;15.00;88.60;;;;;;5159375;27;20018;-72
2021/08/05 05:11:25;;;;;;;15.20;8.35;;;15.10;88.50;;;;;;5158145;27;20038;-72
2021/08/05 05:13:50;;;;;;;9.90;6.10;;;15.00;88.40;;;;;;5158113;27;20042;-72
2021/08/05 05:16:16;;;;;;;6.93;5.03;;;15.10;88.10;;;;;;5158201;27;20015;-72
2021/08/05 05:18:42;;;;;;;5.43;4.13;;;15.10;88.00;;;;;;5158003;27;20022;-72
2021/08/05 05:21:07;;;;;;;8.25;3.72;;;15.10;87.90;;;;;;5157941;27;20022;-72
2021/08/05 05:23:33;;;;;;;6.68;3.58;;;15.10;87.60;;;;;;5157778;27;20026;-72
2021/08/05 05:25:59;;;;;;;7.07;3.65;;;15.20;87.50;;;;;;5157909;27;20470;-73
2021/08/05 05:28:26;;;;;;;4.43;3.42;;;15.20;87.30;;;;;;5158051;27;20390;-73
2021/08/05 05:30:52;;;;;;;9.85;3.40;;;15.20;87.20;;;;;;5139513;27;20105;-73
2021/08/05 05:33:18;;;;;;;4.53;3.40;;;15.30;87.00;;;;;;5157360;27;20416;-73
2021/08/05 05:35:44;;;;;;;4.75;2.80;;;15.30;87.10;;;;;;5157434;27;20471;-72
2021/08/05 05:38:10;;;;;;;7.03;3.38;;;15.40;86.90;;;;;;5157063;27;20063;-73
2021/08/05 05:40:36;;;;;;;5.85;3.40;;;15.50;86.60;;;;;;5157061;27;20019;-73
2021/08/05 05:43:04;;;;;;;6.38;3.38;;;15.40;86.10;;;;;;5138233;27;20554;-72
2021/08/05 05:45:30;;;;;;;4.40;3.30;;;15.40;85.80;;;;;;5156682;27;20043;-73
2021/08/05 05:47:56;;;;;;;4.15;3.03;;;15.50;85.70;;;;;;5156607;27;20027;-72
2021/08/05 05:50:22;;;;;;;4.53;3.10;;;15.50;85.70;;;;;;5156549;27;20159;-73
2021/08/05 05:52:48;;;;;;;4.65;3.40;;;15.50;85.60;;;;;;5156042;27;20067;-73
2021/08/05 05:55:15;;;;;;;6.13;3.40;;;15.60;85.80;;;;;;5156529;27;20094;-72
2021/08/05 05:57:40;;;;;;;7.05;4.57;;;15.60;85.60;;;;;;5156269;27;20094;-73
2021/08/05 06:00:07;;;;;;;5.20;3.92;;;15.70;85.50;;;;;;5156058;27;20046;-72
2021/08/05 06:02:32;;;;;;;7.10;3.35;;;15.80;85.20;;;;;;5155886;27;20019;-73
2021/08/05 06:04:58;;;;;;;5.78;3.35;;;15.80;85.10;;;;;;5155879;27;20514;-72
2021/08/05 06:07:24;;;;;;;4.03;3.40;;;16.00;84.90;;;;;;5137046;27;20022;-73
2021/08/05 06:09:49;;;;;;;5.03;3.10;;;16.10;84.50;;;;;;5155655;27;20106;-73
2021/08/05 06:12:15;;;;;;;3.75;3.30;;;16.10;84.30;;;;;;5155680;27;20466;-73
2021/08/05 06:14:41;;;;;;;5.18;3.33;;;16.20;84.20;;;;;;5155844;27;20033;-72
2021/08/05 06:17:07;;;;;;;6.60;3.30;;;16.40;84.00;;;;;;5155410;27;20527;-72
2021/08/05 06:19:32;;;;;;;6.80;3.53;;;16.60;83.20;;;;;;5155634;27;20064;-72
2021/08/05 06:21:58;;;;;;;4.70;2.72;;;16.70;82.30;;;;;;5155920;27;20022;-72
2021/08/05 06:24:25;;;;;;;5.53;2.70;;;16.90;80.30;;;;;;5155614;27;20030;-72
2021/08/05 06:26:51;;;;;;;4.45;2.42;;;16.80;78.00;;;;;;5155725;27;20025;-72
2021/08/05 06:29:18;;;;;;;6.78;3.17;;;16.90;77.60;;;;;;5155382;27;20022;-72
2021/08/05 06:31:44;;;;;;;5.75;2.97;;;16.90;77.30;;;;;;5155370;27;20212;-73
2021/08/05 06:34:10;;;;;;;4.47;2.60;;;17.00;77.30;;;;;;5155527;27;20034;-72
2021/08/05 06:36:36;;;;;;;2.97;2.63;;;17.10;77.00;;;;;;5155486;27;20494;-72
2021/08/05 06:39:04;;;;;;;3.63;2.70;;;17.10;76.90;;;;;;5155284;27;20045;-72
2021/08/05 06:41:30;;;;;;;3.50;2.72;;;17.20;76.70;;;;;;5154970;27;20102;-72
2021/08/05 06:43:55;;;;;;;3.70;2.50;;;17.30;76.20;;;;;;5155717;27;20044;-72
2021/08/05 06:46:21;;;;;;;2.30;1.85;;;17.40;75.00;;;;;;5154556;27;20023;-72
2021/08/05 06:48:46;;;;;;;5.82;2.95;;;17.50;74.20;;;;;;5136534;27;20493;-73
2021/08/05 06:51:12;;;;;;;3.92;2.88;;;17.60;73.10;;;;;;5156196;27;20134;-73
2021/08/05 06:53:38;;;;;;;4.25;2.60;;;17.50;74.00;;;;;;5158206;27;20037;-73
2021/08/05 06:56:05;;;;;;;4.53;2.50;;;17.60;73.90;;;;;;5156878;27;20047;-72
2021/08/05 06:58:31;;;;;;;5.05;2.75;;;17.60;73.40;;;;;;5155119;27;20098;-74
2021/08/05 07:00:57;;;;;;;3.38;2.80;;;17.60;72.30;;;;;;5155286;27;20030;-73
2021/08/05 07:03:23;;;;;;;14.52;3.40;;;17.50;72.70;;;;;;5155085;27;20023;-74
2021/08/05 07:05:48;;;;;;;9.70;2.58;;;17.60;74.70;;;;;;5154946;27;20075;-76
2021/08/05 07:08:14;;;;;;;6.53;2.30;;;17.80;77.20;;;;;;5154540;27;20034;-74
2021/08/05 07:10:40;;;;;;;7.80;2.50;;;17.90;74.80;;;;;;5154724;27;20029;-78
2021/08/05 07:13:05;;;;;;;4.75;2.13;;;18.10;75.00;;;;;;5154676;27;20037;-79
2021/08/05 07:15:32;;;;;;;3.38;2.03;;;18.30;73.20;;;;;;5136366;27;20023;-78
2021/08/05 07:17:57;;;;;;;4.15;2.17;;;18.50;71.20;;;;;;5154774;27;20379;-78
2021/08/05 07:20:23;;;;;;;4.57;2.00;;;18.60;70.00;;;;;;5154778;27;20023;-79
2021/08/05 07:22:49;;;;;;;3.80;2.30;;;18.70;69.00;;;;;;5154617;27;20102;-79
2021/08/05 07:25:16;;;;;;;1.95;1.50;;;18.80;68.30;;;;;;5154743;27;20023;-79
2021/08/05 07:27:44;;;;;;;1.98;1.60;;;18.80;66.80;;;;;;5153779;27;20022;-79
2021/08/05 07:30:12;;;;;;;3.53;2.42;;;18.90;67.10;;;;;;5154551;27;20058;-79
2021/08/05 07:32:39;;;;;;;3.47;2.00;;;18.90;67.40;;;;;;5154425;27;20026;-78
2021/08/05 07:35:05;;;;;;;1.60;1.50;;;19.00;67.60;;;;;;5154686;27;20432;-79
2021/08/05 07:37:31;;;;;;;1.98;1.52;;;19.10;67.60;;;;;;5154507;27;20075;-79
2021/08/05 07:39:57;;;;;;;3.38;2.10;;;19.30;67.60;;;;;;5154437;27;20102;-78
2021/08/05 07:42:23;;;;;;;5.53;1.88;;;19.50;66.40;;;;;;5154371;27;20038;-80
2021/08/05 07:44:49;;;;;;;4.55;2.28;;;19.60;65.40;;;;;;5154561;27;20133;-79
2021/08/05 07:47:14;;;;;;;2.75;1.67;;;19.60;64.80;;;;;;5154403;27;20026;-80
2021/08/05 07:49:40;;;;;;;3.13;1.85;;;19.70;65.00;;;;;;5153987;27;20382;-79
2021/08/05 07:52:06;;;;;;;3.15;1.90;;;19.70;64.40;;;;;;5135685;27;20030;-78
2021/08/05 07:54:33;;;;;;;4.18;2.35;;;19.80;64.40;;;;;;5153929;27;20026;-78
2021/08/05 07:56:59;;;;;;;5.63;2.28;;;19.80;64.20;;;;;;5154257;27;20110;-78
2021/08/05 07:59:24;;;;;;;3.78;1.58;;;19.90;64.10;;;;;;5153984;27;20065;-79
2021/08/05 08:01:50;;;;;;;1.83;1.63;;;19.90;64.00;;;;;;5153724;27;20106;-79
2021/08/05 08:04:16;;;;;;;3.80;1.70;;;20.00;63.70;;;;;;5153990;27;20023;-78
2021/08/05 08:06:41;;;;;;;7.28;1.73;;;20.20;63.10;;;;;;5153737;27;20019;-78
2021/08/05 08:09:07;;;;;;;1.63;1.50;;;20.30;62.80;;;;;;5153941;27;20443;-78
2021/08/05 08:11:33;;;;;;;3.45;1.70;;;20.70;62.00;;;;;;5154039;27;20023;-79
2021/08/05 08:13:59;;;;;;;2.25;1.60;;;20.90;61.00;;;;;;5154012;27;20063;-78
2021/08/05 08:16:24;;;;;;;1.75;1.40;;;21.00;60.40;;;;;;5153794;27;20463;-78
2021/08/05 08:18:51;;;;;;;2.45;1.58;;;21.10;60.30;;;;;;5153933;27;20401;-79
2021/08/05 08:21:17;;;;;;;3.38;1.33;;;21.20;59.40;;;;;;5153951;27;20019;-79
2021/08/05 08:23:43;;;;;;;1.77;1.35;;;21.30;58.90;;;;;;5153979;27;20056;-79
2021/08/05 08:26:09;;;;;;;1.63;1.30;;;21.30;59.20;;;;;;5154074;27;20478;-79
2021/08/05 08:28:34;;;;;;;1.63;1.20;;;21.40;59.00;;;;;;5135308;27;20105;-79
2021/08/05 08:31:00;;;;;;;1.55;1.20;;;21.50;58.10;;;;;;5153882;27;20023;-79
2021/08/05 08:33:26;;;;;;;5.63;1.60;;;21.60;57.50;;;;;;5153384;27;20019;-77
2021/08/05 08:35:51;;;;;;;2.50;1.30;;;21.70;57.90;;;;;;5153698;27;20023;-77
2021/08/05 08:38:23;;;;;;;4.10;1.80;;;21.80;57.60;;;;;;5153684;27;20015;-78
2021/08/05 08:40:50;;;;;;;2.53;1.40;;;21.70;57.10;;;;;;5155476;27;20015;-78
2021/08/05 08:43:15;;;;;;;2.13;1.63;;;21.50;57.00;;;;;;5156397;27;20031;-77
2021/08/05 08:45:42;;;;;;;2.30;1.45;;;21.50;58.00;;;;;;5138025;27;20431;-78
2021/08/05 08:48:11;;;;;;;1.45;1.30;;;21.50;58.30;;;;;;5157505;27;20525;-78
2021/08/05 08:50:39;;;;;;;1.80;1.40;;;21.60;58.50;;;;;;5157167;27;20106;-78
2021/08/05 08:53:07;;;;;;;2.38;1.73;;;21.80;58.20;;;;;;5138558;27;20029;-77
2021/08/05 08:55:34;;;;;;;2.45;1.70;;;21.90;57.60;;;;;;5157217;27;20027;-77
2021/08/05 08:58:04;;;;;;;1.13;1.02;;;22.10;57.30;;;;;;5157481;27;20019;-78
2021/08/05 09:00:30;;;;;;;1.40;1.30;;;22.10;56.60;;;;;;5157249;27;20030;-77
2021/08/05 09:03:00;;;;;;;4.47;1.20;;;21.80;55.80;;;;;;5138789;27;20022;-77
2021/08/05 09:05:28;;;;;;;1.73;1.33;;;21.60;56.10;;;;;;5138537;27;20018;-79
2021/08/05 09:07:54;;;;;;;1.42;1.10;;;21.30;57.20;;;;;;5157026;27;20023;-78
2021/08/05 09:10:20;;;;;;;1.00;0.90;;;20.50;57.60;;;;;;5156875;27;20027;-79
2021/08/05 09:12:51;;;;;;;1.45;1.10;;;20.20;59.30;;;;;;5157002;27;20019;-78
2021/08/05 09:15:35;;;;;;;2.45;1.30;;;20.00;59.10;;;;;;5156855;27;20026;-79
2021/08/05 09:18:02;;;;;;;2.40;1.10;;;20.00;60.30;;;;;;5156806;27;20474;-78
2021/08/05 09:20:28;;;;;;;1.17;0.77;;;19.90;60.10;;;;;;5156691;27;20056;-77
2021/08/05 09:22:53;;;;;;;0.82;0.73;;;19.70;57.90;;;;;;5138171;27;20467;-78
2021/08/05 09:25:31;;;;;;;0.55;0.50;;;19.70;58.80;;;;;;5156424;27;20035;-76
2021/08/05 09:28:13;;;;;;;3.70;0.88;;;19.80;58.60;;;;;;5156501;27;20470;-76
2021/08/05 09:30:41;;;;;;;0.75;0.75;;;20.00;56.70;;;;;;5156780;27;20102;-77
2021/08/05 09:33:14;;;;;;;0.45;0.45;;;20.10;56.20;;;;;;5156192;27;20019;-72
2021/08/05 09:35:41;;;;;;;0.93;0.75;;;20.10;57.20;;;;;;5156355;27;20431;-72
2021/08/05 09:38:15;;;;;;;0.98;0.77;;;20.00;57.70;;;;;;5156312;27;20030;-73
2021/08/05 09:40:41;;;;;;;1.90;1.00;;;20.30;58.00;;;;;;5156264;27;20018;-72
2021/08/05 09:43:07;;;;;;;2.17;0.80;;;20.60;59.80;;;;;;5156392;27;20063;-73
2021/08/05 09:45:34;;;;;;;0.82;0.80;;;20.90;56.80;;;;;;5156371;27;20026;-72
2021/08/05 09:47:59;;;;;;;0.70;0.60;;;20.90;56.50;;;;;;5156391;27;20485;-74
2021/08/05 09:50:25;;;;;;;1.20;0.60;;;21.00;54.00;;;;;;5155699;27;20050;-72
2021/08/05 09:52:51;;;;;;;0.95;0.70;;;20.90;53.40;;;;;;5136971;27;20109;-72
2021/08/05 09:55:22;;;;;;;0.52;0.52;;;20.70;56.00;;;;;;5156151;27;20027;-73
2021/08/05 09:57:56;;;;;;;1.02;0.60;;;20.40;57.70;;;;;;5155967;27;20019;-73
2021/08/05 10:00:21;;;;;;;0.90;0.60;;;20.40;56.40;;;;;;5155975;27;20023;-73
2021/08/05 10:02:49;;;;;;;3.55;0.70;;;20.30;57.20;;;;;;5155886;27;20034;-72
2021/08/05 10:05:24;;;;;;;1.02;0.70;;;20.30;56.70;;;;;;5155826;27;20114;-73
2021/08/05 10:07:59;;;;;;;0.40;0.40;;;20.30;58.10;;;;;;5155839;27;20026;-73
2021/08/05 10:10:26;;;;;;;0.50;0.50;;;20.30;56.60;;;;;;5155674;27;20026;-73
2021/08/05 10:12:53;;;;;;;0.50;0.40;;;20.20;55.50;;;;;;5155466;27;20038;-74
2021/08/05 10:15:20;;;;;;;3.15;0.30;;;20.10;55.40;;;;;;5155694;27;20023;-72
2021/08/05 10:17:51;;;;;;;0.82;0.40;;;20.20;56.80;;;;;;5155480;27;20147;-73
2021/08/05 10:20:18;;;;;;;0.63;0.50;;;20.40;56.50;;;;;;5155483;27;20022;-73
2021/08/05 10:22:44;;;;;;;0.52;0.50;;;20.50;56.60;;;;;;5155971;27;20063;-74
2021/08/05 10:25:12;;;;;;;0.43;0.43;;;20.60;56.30;;;;;;5156477;27;20035;-73
2021/08/05 10:27:38;;;;;;;2.05;0.50;;;20.60;57.70;;;;;;5155317;27;20015;-73
2021/08/05 10:30:10;;;;;;;0.52;0.40;;;20.70;55.80;;;;;;5155276;27;20027;-72
2021/08/05 10:32:36;;;;;;;1.25;0.38;;;20.90;53.70;;;;;;5155278;27;20046;-73
2021/08/05 10:35:03;;;;;;;1.65;0.70;;;21.20;53.70;;;;;;5154842;27;20439;-73
2021/08/05 10:37:28;;;;;;;0.40;0.40;;;21.60;52.40;;;;;;5155169;27;20050;-73
2021/08/05 10:39:56;;;;;;;0.45;0.40;;;22.00;50.80;;;;;;5136731;27;20069;-73
2021/08/05 10:42:22;;;;;;;1.17;0.30;;;22.10;49.30;;;;;;5155260;27;20019;-72
2021/08/05 10:44:50;;;;;;;1.95;0.47;;;22.00;49.50;;;;;;5155116;27;20021;-73
2021/08/05 10:47:25;;;;;;;0.45;0.45;;;22.20;50.10;;;;;;5155020;27;20015;-73
2021/08/05 10:50:18;;;;;;;2.75;0.80;;;22.30;50.10;;;;;;5154857;27;20862;-73
2021/08/05 10:52:47;;;;;;;1.15;0.68;;;22.40;48.30;;;;;;5133266;27;20058;-73
2021/08/05 10:55:16;;;;;;;1.83;0.60;;;22.40;49.70;;;;;;5155080;27;20488;-73
2021/08/05 10:58:12;;;;;;;1.52;0.40;;;22.30;51.00;;;;;;5154723;27;20102;-72
2021/08/05 11:01:01;;;;;;;2.15;0.65;;;22.10;49.60;;;;;;5145966;27;20031;-72
2021/08/05 11:03:32;;;;;;;0.50;0.50;;;21.90;50.80;;;;;;5154694;27;20022;-73
2021/08/05 11:05:59;;;;;;;0.45;0.32;;;22.20;52.30;;;;;;5154666;27;20022;-72
2021/08/05 11:08:27;;;;;;;0.95;0.52;;;22.40;48.10;;;;;;5136025;27;20023;-73
2021/08/05 11:11:20;;;;;;;1.08;0.47;;;22.30;48.70;;;;;;5154646;27;20023;-73
2021/08/05 11:14:06;;;;;;;0.93;0.60;;;22.30;49.20;;;;;;5135934;27;20061;-72
2021/08/05 11:17:01;;;;;;;;;;;22.10;50.10;;;;;;5102415;27;20031;-73
2021/08/05 11:19:29;;;;;;;1.65;0.70;;;22.10;48.60;;;;;;5132592;27;19903;-74
2021/08/05 11:21:56;;;;;;;1.42;0.60;;;22.10;48.60;;;;;;5154757;27;20030;-73
2021/08/05 11:24:43;;;;;;;0.52;0.45;;;22.00;49.20;;;;;;5154591;27;20023;-73
2021/08/05 11:27:17;;;;;;;2.63;0.75;;;22.00;49.90;;;;;;5154615;27;20379;-72
2021/08/05 11:29:42;;;;;;;0.45;0.45;;;21.80;50.80;;;;;;5153819;27;20156;-73
2021/08/05 11:32:24;;;;;;;0.90;0.50;;;21.70;51.10;;;;;;5154341;27;20027;-72
2021/08/05 11:34:59;;;;;;;0.60;0.60;;;21.60;51.30;;;;;;5154296;27;20027;-73
2021/08/05 11:37:26;;;;;;;1.15;0.55;;;21.20;54.20;;;;;;5154246;27;20095;-73
2021/08/05 11:39:57;;;;;;;1.42;0.43;;;21.00;54.10;;;;;;5154163;27;20027;-71
2021/08/05 11:42:23;;;;;;;1.10;0.43;;;20.70;55.80;;;;;;5154376;27;20352;-72
2021/08/05 11:44:59;;;;;;;1.27;0.90;;;20.50;57.90;;;;;;5154219;27;20095;-72
2021/08/05 11:47:34;;;;;;;;;;;20.40;59.70;;;;;;5154955;27;20030;-74
2021/08/05 11:50:03;;;;;;;2.70;0.73;;;20.30;64.30;;;;;;5155153;27;19970;-75
2021/08/05 11:52:29;;;;;;;0.60;0.60;;;20.20;60.20;;;;;;5155428;27;20038;-75
2021/08/05 11:55:14;;;;;;;1.05;0.57;;;19.90;61.60;;;;;;5155683;27;20035;-76
2021/08/05 11:57:41;;;;;;;0.82;0.68;;;19.60;63.60;;;;;;5154576;27;20054;-75
2021/08/05 12:00:27;;;;;;;0.55;0.55;;;19.40;65.30;;;;;;5156945;27;20027;-73
2021/08/05 12:02:53;;;;;;;;;;;19.30;66.80;;;;;;5157384;27;20042;-76
2021/08/05 12:05:22;;;;;;;1.13;0.60;;;19.20;68.50;;;;;;5158158;27;20031;-76
2021/08/05 12:07:49;;;;;;;1.13;0.80;;;19.20;70.60;;;;;;5160605;27;20052;-75
2021/08/05 12:10:16;;;;;;;2.33;0.68;;;19.20;71.40;;;;;;5161496;27;20019;-75
2021/08/05 12:12:45;;;;;;;1.67;0.80;;;19.30;71.40;;;;;;5161505;27;20011;-76
2021/08/05 12:15:13;;;;;;;1.67;0.77;;;19.40;71.10;;;;;;5159962;27;20030;-75
2021/08/05 12:17:48;;;;;;;2.25;0.90;;;19.50;71.00;;;;;;5157760;27;20098;-76
2021/08/05 12:20:19;;;;;;;1.07;0.80;;;19.60;70.20;;;;;;5139215;27;20117;-76
2021/08/05 12:22:48;;;;;;;0.93;0.65;;;19.80;69.80;;;;;;5157818;27;20035;-78
2021/08/05 12:25:42;;;;;;;0.95;0.85;;;20.10;67.60;;;;;;5157774;27;20109;-76
2021/08/05 12:28:15;;;;;;;1.33;1.10;;;20.50;66.20;;;;;;5157900;27;20015;-73
2021/08/05 12:30:43;;;;;;;1.23;0.85;;;21.00;65.10;;;;;;5157697;27;20023;-78
2021/08/05 12:33:13;;;;;;;3.13;0.98;;;21.70;64.40;;;;;;5157526;27;20482;-77
2021/08/05 12:35:40;;;;;;;0.60;0.60;;;22.30;62.40;;;;;;5157665;27;20026;-74
2021/08/05 12:38:09;;;;;;;0.70;0.70;;;23.00;60.00;;;;;;5157487;27;20041;-76
2021/08/05 12:40:39;;;;;;;1.02;0.90;;;23.70;58.10;;;;;;5157668;27;20019;-74
2021/08/05 12:43:07;;;;;;;2.10;0.70;;;24.30;54.40;;;;;;5157605;27;20015;-75
2021/08/05 12:45:36;;;;;;;0.70;0.70;;;24.80;51.20;;;;;;5157483;27;20037;-75
2021/08/05 12:48:03;;;;;;;0.85;0.70;;;25.20;48.60;;;;;;5157231;27;20478;-76
2021/08/05 12:50:36;;;;;;;0.75;0.60;;;25.30;48.30;;;;;;5157048;27;20402;-75
2021/08/05 12:53:01;;;;;;;2.70;0.80;;;25.40;46.00;;;;;;5158217;27;20023;-75